sensor_id;sensor_type;location;lat;lon;timestamp;pressure;altitude;pressure_sealevel;temperature;humidity
12897;BME280;6516;35.028;32.372;2024-01-30T00:00:07;100014.78;;;7.46;100.00
12897;BME280;6516;35.028;32.372;2024-01-30T00:02:41;100012.16;;;7.48;100.00
12897;BME280;6516;35.028;32.372;2024-01-30T00:05:15;100011.28;;;7.49;100.00
12897;BME280;6516;35.028;32.372;2024-01-30T00:07:44;100016.50;;;7.49;100.00
12897;BME280;6516;35.028;32.372;2024-01-30T00:10:14;100017.41;;;7.49;100.00
12897;BME280;6516;35.028;32.372;2024-01-30T00:12:45;100014.72;;;7.52;100.00
12897;BME280;6516;35.028;32.372;2024-01-30T00:15:15;100015.59;;;7.56;100.00
12897;BME280;6516;35.028;32.372;2024-01-30T00:17:45;100018.16;;;7.62;100.00
12897;BME280;6516;35.028;32.372;2024-01-30T00:20:18;100009.41;;;7.67;100.00
12897;BME280;6516;35.028;32.372;2024-01-30T00:22:46;100005.00;;;7.68;100.00
12897;BME280;6516;35.028;32.372;2024-01-30T00:25:15;100008.50;;;7.70;100.00
12897;BME280;6516;35.028;32.372;2024-01-30T00:27:45;100013.75;;;7.68;100.00
12897;BME280;6516;35.028;32.372;2024-01-30T00:30:13;100002.38;;;7.68;100.00
12897;BME280;6516;35.028;32.372;2024-01-30T00:32:44;100004.09;;;7.72;100.00
12897;BME280;6516;35.028;32.372;2024-01-30T00:35:20;100005.81;;;7.77;100.00
12897;BME280;6516;35.028;32.372;2024-01-30T00:37:54;100004.00;;;7.81;100.00
12897;BME280;6516;35.028;32.372;2024-01-30T00:40:26;100002.28;;;7.81;100.00
12897;BME280;6516;35.028;32.372;2024-01-30T00:42:57;99998.84;;;7.76;100.00
12897;BME280;6516;35.028;32.372;2024-01-30T00:45:25;99989.25;;;7.74;100.00
12897;BME280;6516;35.028;32.372;2024-01-30T00:47:55;99981.47;;;7.63;100.00
12897;BME280;6516;35.028;32.372;2024-01-30T00:50:26;99988.50;;;7.58;100.00
12897;BME280;6516;35.028;32.372;2024-01-30T00:52:58;99993.75;;;7.57;100.00
12897;BME280;6516;35.028;32.372;2024-01-30T00:55:26;99994.66;;;7.56;100.00
12897;BME280;6516;35.028;32.372;2024-01-30T00:58:00;99990.34;;;7.47;100.00
12897;BME280;6516;35.028;32.372;2024-01-30T01:00:28;99990.41;;;7.40;100.00
12897;BME280;6516;35.028;32.372;2024-01-30T01:02:59;99991.28;;;7.42;100.00
12897;BME280;6516;35.028;32.372;2024-01-30T01:05:32;99989.56;;;7.39;100.00
12897;BME280;6516;35.028;32.372;2024-01-30T01:08:06;99992.16;;;7.39;100.00
12897;BME280;6516;35.028;32.372;2024-01-30T01:10:41;99987.81;;;7.37;100.00
12897;BME280;6516;35.028;32.372;2024-01-30T01:13:20;99992.19;;;7.36;100.00
12897;BME280;6516;35.028;32.372;2024-01-30T01:15:51;99992.19;;;7.33;100.00
12897;BME280;6516;35.028;32.372;2024-01-30T01:18:26;99996.53;;;7.37;100.00
12897;BME280;6516;35.028;32.372;2024-01-30T01:20:54;99986.09;;;7.33;100.00
12897;BME280;6516;35.028;32.372;2024-01-30T01:23:28;99993.06;;;7.35;100.00
12897;BME280;6516;35.028;32.372;2024-01-30T01:26:16;99990.44;;;7.35;100.00
12897;BME280;6516;35.028;32.372;2024-01-30T01:28:55;99993.91;;;7.37;100.00
12897;BME280;6516;35.028;32.372;2024-01-30T01:31:23;99986.94;;;7.39;100.00
12897;BME280;6516;35.028;32.372;2024-01-30T01:33:57;99983.38;;;7.43;100.00
12897;BME280;6516;35.028;32.372;2024-01-30T01:36:30;99978.13;;;7.46;100.00
12897;BME280;6516;35.028;32.372;2024-01-30T01:39:05;99994.69;;;7.50;100.00
12897;BME280;6516;35.028;32.372;2024-01-30T01:41:34;99984.19;;;7.51;100.00
12897;BME280;6516;35.028;32.372;2024-01-30T01:44:09;99978.94;;;7.54;100.00
12897;BME280;6516;35.028;32.372;2024-01-30T01:46:42;99978.94;;;7.57;100.00
12897;BME280;6516;35.028;32.372;2024-01-30T01:49:19;99978.00;;;7.61;100.00
12897;BME280;6516;35.028;32.372;2024-01-30T01:51:48;99967.50;;;7.64;100.00
12897;BME280;6516;35.028;32.372;2024-01-30T01:54:17;99963.97;;;7.67;100.00
12897;BME280;6516;35.028;32.372;2024-01-30T01:56:47;99951.72;;;7.70;100.00
12897;BME280;6516;35.028;32.372;2024-01-30T01:59:25;99949.06;;;7.73;100.00
12897;BME280;6516;35.028;32.372;2024-01-30T02:02:00;99946.38;;;7.79;100.00
12897;BME280;6516;35.028;32.372;2024-01-30T02:04:34;99951.59;;;7.82;100.00
12897;BME280;6516;35.028;32.372;2024-01-30T02:07:04;99949.81;;;7.86;100.00
12897;BME280;6516;35.028;32.372;2024-01-30T02:09:39;99944.56;;;7.86;100.00
12897;BME280;6516;35.028;32.372;2024-01-30T02:12:09;99935.78;;;7.91;100.00
12897;BME280;6516;35.028;32.372;2024-01-30T02:14:46;99936.59;;;7.95;100.00
12897;BME280;6516;35.028;32.372;2024-01-30T02:17:23;99941.81;;;7.99;100.00
12897;BME280;6516;35.028;32.372;2024-01-30T02:19:56;99936.56;;;7.99;100.00
12897;BME280;6516;35.028;32.372;2024-01-30T02:23:04;99929.63;;;7.94;100.00
12897;BME280;6516;35.028;32.372;2024-01-30T02:25:42;99938.50;;;7.82;100.00
12897;BME280;6516;35.028;32.372;2024-01-30T02:28:25;99943.00;;;7.70;100.00
12897;BME280;6516;35.028;32.372;2024-01-30T02:31:01;99947.34;;;7.72;100.00
12897;BME280;6516;35.028;32.372;2024-01-30T02:33:31;99938.53;;;7.79;100.00
12897;BME280;6516;35.028;32.372;2024-01-30T02:35:58;99933.28;;;7.79;100.00
12897;BME280;6516;35.028;32.372;2024-01-30T02:38:34;99932.41;;;7.80;100.00
12897;BME280;6516;35.028;32.372;2024-01-30T02:41:04;99929.81;;;7.80;100.00
12897;BME280;6516;35.028;32.372;2024-01-30T02:43:40;99933.28;;;7.79;100.00
12897;BME280;6516;35.028;32.372;2024-01-30T02:46:15;99932.44;;;7.77;100.00
12897;BME280;6516;35.028;32.372;2024-01-30T02:48:43;99934.16;;;7.78;100.00
12897;BME280;6516;35.028;32.372;2024-01-30T02:51:14;99932.41;;;7.80;100.00
12897;BME280;6516;35.028;32.372;2024-01-30T02:53:46;99934.13;;;7.83;100.00
12897;BME280;6516;35.028;32.372;2024-01-30T02:56:30;99939.38;;;7.84;100.00
12897;BME280;6516;35.028;32.372;2024-01-30T02:59:03;99937.53;;;7.91;100.00
12897;BME280;6516;35.028;32.372;2024-01-30T03:01:31;99937.50;;;7.92;100.00
12897;BME280;6516;35.028;32.372;2024-01-30T03:04:07;99935.78;;;7.91;100.00
12897;BME280;6516;35.028;32.372;2024-01-30T03:06:45;99935.78;;;7.91;100.00
12897;BME280;6516;35.028;32.372;2024-01-30T03:09:24;99930.53;;;7.94;100.00
12897;BME280;6516;35.028;32.372;2024-01-30T03:11:56;99925.22;;;7.97;100.00
12897;BME280;6516;35.028;32.372;2024-01-30T03:14:36;99932.16;;;8.01;100.00
12897;BME280;6516;35.028;32.372;2024-01-30T03:17:13;99937.38;;;8.04;100.00
12897;BME280;6516;35.028;32.372;2024-01-30T03:19:45;99930.34;;;8.09;100.00
12897;BME280;6516;35.028;32.372;2024-01-30T03:22:19;99932.03;;;8.13;100.00
12897;BME280;6516;35.028;32.372;2024-01-30T03:24:54;99935.50;;;8.17;100.00
12897;BME280;6516;35.028;32.372;2024-01-30T03:27:34;99945.94;;;8.20;100.00
12897;BME280;6516;35.028;32.372;2024-01-30T03:30:06;99947.69;;;8.22;100.00
12897;BME280;6516;35.028;32.372;2024-01-30T03:32:40;99945.91;;;8.26;100.00
12897;BME280;6516;35.028;32.372;2024-01-30T03:35:09;99937.22;;;8.22;100.00
12897;BME280;6516;35.028;32.372;2024-01-30T03:37:37;99947.69;;;8.19;100.00
12897;BME280;6516;35.028;32.372;2024-01-30T03:40:12;99942.44;;;8.19;100.00
12897;BME280;6516;35.028;32.372;2024-01-30T03:42:48;99951.22;;;8.21;100.00
12897;BME280;6516;35.028;32.372;2024-01-30T03:45:26;99952.94;;;8.24;100.00
12897;BME280;6516;35.028;32.372;2024-01-30T03:48:08;99956.38;;;8.29;100.00
12897;BME280;6516;35.028;32.372;2024-01-30T03:50:41;99954.56;;;8.32;100.00
12897;BME280;6516;35.028;32.372;2024-01-30T03:53:11;99957.16;;;8.37;100.00
12897;BME280;6516;35.028;32.372;2024-01-30T03:55:40;99955.38;;;8.37;100.00
12897;BME280;6516;35.028;32.372;2024-01-30T03:58:15;99958.88;;;8.39;100.00
12897;BME280;6516;35.028;32.372;2024-01-30T04:00:46;99963.22;;;8.40;100.00
12897;BME280;6516;35.028;32.372;2024-01-30T04:03:19;99964.91;;;8.46;100.00
12897;BME280;6516;35.028;32.372;2024-01-30T04:05:54;99965.75;;;8.48;100.00
12897;BME280;6516;35.028;32.372;2024-01-30T04:08:29;99961.31;;;8.50;100.00
12897;BME280;6516;35.028;32.372;2024-01-30T04:11:08;99962.19;;;8.52;100.00
12897;BME280;6516;35.028;32.372;2024-01-30T04:13:42;99964.78;;;8.55;100.00
12897;BME280;6516;35.028;32.372;2024-01-30T04:16:25;99958.66;;;8.56;100.00
12897;BME280;6516;35.028;32.372;2024-01-30T04:19:05;99965.59;;;8.58;100.00
12897;BME280;6516;35.028;32.372;2024-01-30T04:21:35;99969.06;;;8.62;100.00
12897;BME280;6516;35.028;32.372;2024-01-30T04:24:11;99966.41;;;8.63;100.00
12897;BME280;6516;35.028;32.372;2024-01-30T04:26:43;99962.91;;;8.64;100.00
12897;BME280;6516;35.028;32.372;2024-01-30T04:29:11;99964.69;;;8.64;100.00
12897;BME280;6516;35.028;32.372;2024-01-30T04:31:42;99965.53;;;8.63;100.00
12897;BME280;6516;35.028;32.372;2024-01-30T04:34:14;99977.81;;;8.61;100.00
12897;BME280;6516;35.028;32.372;2024-01-30T04:36:49;99979.56;;;8.59;100.00
12897;BME280;6516;35.028;32.372;2024-01-30T04:39:24;99978.75;;;8.57;100.00
12897;BME280;6516;35.028;32.372;2024-01-30T04:41:57;99985.78;;;8.55;100.00
12897;BME280;6516;35.028;32.372;2024-01-30T04:44:27;99988.50;;;8.46;100.00
12897;BME280;6516;35.028;32.372;2024-01-30T04:47:06;99990.31;;;8.41;100.00
12897;BME280;6516;35.028;32.372;2024-01-30T04:49:42;99983.38;;;8.37;100.00
12897;BME280;6516;35.028;32.372;2024-01-30T04:52:13;99981.66;;;8.34;100.00
12897;BME280;6516;35.028;32.372;2024-01-30T04:54:44;99975.56;;;8.29;100.00
12897;BME280;6516;35.028;32.372;2024-01-30T04:57:25;99974.72;;;8.27;100.00
12897;BME280;6516;35.028;32.372;2024-01-30T04:59:58;99975.63;;;8.26;100.00
12897;BME280;6516;35.028;32.372;2024-01-30T05:02:30;99978.28;;;8.23;100.00
12897;BME280;6516;35.028;32.372;2024-01-30T05:05:06;99970.44;;;8.19;100.00
12897;BME280;6516;35.028;32.372;2024-01-30T05:07:41;99979.25;;;8.12;100.00
12897;BME280;6516;35.028;32.372;2024-01-30T05:10:11;99974.91;;;8.09;100.00
12897;BME280;6516;35.028;32.372;2024-01-30T05:12:43;99976.66;;;8.09;100.00
12897;BME280;6516;35.028;32.372;2024-01-30T05:15:19;99963.53;;;8.10;100.00
12897;BME280;6516;35.028;32.372;2024-01-30T05:17:51;99955.66;;;8.10;100.00
12897;BME280;6516;35.028;32.372;2024-01-30T05:20:26;99946.03;;;8.14;100.00
12897;BME280;6516;35.028;32.372;2024-01-30T05:23:09;99948.66;;;8.12;100.00
12897;BME280;6516;35.028;32.372;2024-01-30T05:25:37;99937.31;;;8.10;100.00
12897;BME280;6516;35.028;32.372;2024-01-30T05:28:11;99933.78;;;8.14;100.00
12897;BME280;6516;35.028;32.372;2024-01-30T05:30:39;99926.00;;;8.08;100.00
12897;BME280;6516;35.028;32.372;2024-01-30T05:33:10;99921.59;;;8.09;100.00
12897;BME280;6516;35.028;32.372;2024-01-30T05:35:47;99914.59;;;8.09;100.00
12897;BME280;6516;35.028;32.372;2024-01-30T05:38:17;99915.53;;;8.05;100.00
12897;BME280;6516;35.028;32.372;2024-01-30T05:40:45;99916.34;;;8.10;100.00
12897;BME280;6516;35.028;32.372;2024-01-30T05:43:14;99908.44;;;8.13;100.00
12897;BME280;6516;35.028;32.372;2024-01-30T05:45:49;99899.66;;;8.17;100.00
12897;BME280;6516;35.028;32.372;2024-01-30T05:48:19;99901.34;;;8.24;100.00
12897;BME280;6516;35.028;32.372;2024-01-30T05:50:47;99906.47;;;8.33;100.00
12897;BME280;6516;35.028;32.372;2024-01-30T05:53:17;99917.75;;;8.38;100.00
12897;BME280;6516;35.028;32.372;2024-01-30T05:55:50;99913.31;;;8.45;100.00
12897;BME280;6516;35.028;32.372;2024-01-30T05:58:25;99914.19;;;8.45;100.00
12897;BME280;6516;35.028;32.372;2024-01-30T06:00:54;99919.34;;;8.51;100.00
12897;BME280;6516;35.028;32.372;2024-01-30T06:03:29;99928.91;;;8.55;100.00
12897;BME280;6516;35.028;32.372;2024-01-30T06:06:01;99921.03;;;8.57;100.00
12897;BME280;6516;35.028;32.372;2024-01-30T06:08:30;99923.72;;;8.52;100.00
12897;BME280;6516;35.028;32.372;2024-01-30T06:11:09;99919.34;;;8.51;100.00
12897;BME280;6516;35.028;32.372;2024-01-30T06:13:40;99925.50;;;8.49;100.00
12897;BME280;6516;35.028;32.372;2024-01-30T06:16:13;99918.53;;;8.48;100.00
12897;BME280;6516;35.028;32.372;2024-01-30T06:18:47;99915.94;;;8.45;100.00
12897;BME280;6516;35.028;32.372;2024-01-30T06:21:21;99913.31;;;8.45;100.00
12897;BME280;6516;35.028;32.372;2024-01-30T06:23:49;99915.84;;;8.52;100.00
12897;BME280;6516;35.028;32.372;2024-01-30T06:26:19;99914.97;;;8.52;100.00
12897;BME280;6516;35.028;32.372;2024-01-30T06:28:55;99911.44;;;8.54;100.00
12897;BME280;6516;35.028;32.372;2024-01-30T06:31:28;99906.16;;;8.57;100.00
12897;BME280;6516;35.028;32.372;2024-01-30T06:34:02;99903.44;;;8.63;100.00
12897;BME280;6516;35.028;32.372;2024-01-30T06:36:31;99892.81;;;8.74;100.00
12897;BME280;6516;35.028;32.372;2024-01-30T06:39:03;99890.84;;;8.86;100.00
12897;BME280;6516;35.028;32.372;2024-01-30T06:41:38;99888.19;;;8.89;100.00
12897;BME280;6516;35.028;32.372;2024-01-30T06:44:15;99875.06;;;8.89;100.00
12897;BME280;6516;35.028;32.372;2024-01-30T06:46:45;99869.94;;;8.82;100.00
12897;BME280;6516;35.028;32.372;2024-01-30T06:49:17;99865.53;;;8.82;100.00
12897;BME280;6516;35.028;32.372;2024-01-30T06:51:48;99854.22;;;8.79;100.00
12897;BME280;6516;35.028;32.372;2024-01-30T06:54:17;99840.03;;;8.90;100.00
12897;BME280;6516;35.028;32.372;2024-01-30T06:56:46;99837.16;;;9.05;100.00
12897;BME280;6516;35.028;32.372;2024-01-30T06:59:32;99827.88;;;9.35;100.00
12897;BME280;6516;35.028;32.372;2024-01-30T07:02:00;99818.50;;;9.67;100.00
12897;BME280;6516;35.028;32.372;2024-01-30T07:04:30;99807.25;;;10.05;100.00
12897;BME280;6516;35.028;32.372;2024-01-30T07:07:05;99801.13;;;10.42;100.00
12897;BME280;6516;35.028;32.372;2024-01-30T07:09:40;99790.16;;;10.60;100.00
12897;BME280;6516;35.028;32.372;2024-01-30T07:12:21;99787.22;;;10.74;100.00
12897;BME280;6516;35.028;32.372;2024-01-30T07:14:54;99781.91;;;10.77;100.00
12897;BME280;6516;35.028;32.372;2024-01-30T07:17:25;99780.59;;;10.93;100.00
12897;BME280;6516;35.028;32.372;2024-01-30T07:20:01;99777.66;;;11.05;100.00
12897;BME280;6516;35.028;32.372;2024-01-30T07:22:37;99780.06;;;11.46;100.00
12897;BME280;6516;35.028;32.372;2024-01-30T07:25:09;99784.63;;;11.40;100.00
12897;BME280;6516;35.028;32.372;2024-01-30T07:27:37;99792.03;;;11.58;100.00
12897;BME280;6516;35.028;32.372;2024-01-30T07:30:12;99802.28;;;11.70;100.00
12897;BME280;6516;35.028;32.372;2024-01-30T07:32:43;99807.84;;;11.90;100.00
12897;BME280;6516;35.028;32.372;2024-01-30T07:35:12;99817.69;;;12.14;100.00
12897;BME280;6516;35.028;32.372;2024-01-30T07:37:49;99831.00;;;12.40;100.00
12897;BME280;6516;35.028;32.372;2024-01-30T07:40:28;99851.31;;;12.38;100.00
12897;BME280;6516;35.028;32.372;2024-01-30T07:43:05;99873.75;;;12.51;100.00
12897;BME280;6516;35.028;32.372;2024-01-30T07:45:36;99881.75;;;12.77;100.00
12897;BME280;6516;35.028;32.372;2024-01-30T07:48:07;99890.50;;;13.08;100.00
12897;BME280;6516;35.028;32.372;2024-01-30T07:50:37;99897.44;;;13.38;100.00
12897;BME280;6516;35.028;32.372;2024-01-30T07:53:07;99893.66;;;13.19;100.00
12897;BME280;6516;35.028;32.372;2024-01-30T07:55:36;99902.19;;;13.27;100.00
12897;BME280;6516;35.028;32.372;2024-01-30T07:58:07;99910.34;;;13.21;100.00
12897;BME280;6516;35.028;32.372;2024-01-30T08:00:47;99918.34;;;13.18;100.00
12897;BME280;6516;35.028;32.372;2024-01-30T08:03:17;99919.06;;;13.23;100.00
12897;BME280;6516;35.028;32.372;2024-01-30T08:05:45;99922.63;;;13.49;100.00
12897;BME280;6516;35.028;32.372;2024-01-30T08:08:15;99918.28;;;13.21;100.00
12897;BME280;6516;35.028;32.372;2024-01-30T08:10:46;99915.09;;;12.81;100.00
12897;BME280;6516;35.028;32.372;2024-01-30T08:13:19;99922.94;;;12.55;100.00
12897;BME280;6516;35.028;32.372;2024-01-30T08:15:54;99914.81;;;12.32;100.00
12897;BME280;6516;35.028;32.372;2024-01-30T08:18:26;99929.22;;;12.20;100.00
12897;BME280;6516;35.028;32.372;2024-01-30T08:21:01;99920.28;;;12.26;100.00
12897;BME280;6516;35.028;32.372;2024-01-30T08:23:39;99922.66;;;12.04;100.00
12897;BME280;6516;35.028;32.372;2024-01-30T08:26:11;99912.97;;;12.03;100.00
12897;BME280;6516;35.028;32.372;2024-01-30T08:28:50;99915.50;;;12.08;100.00
12897;BME280;6516;35.028;32.372;2024-01-30T08:31:23;99909.41;;;12.36;100.00
12897;BME280;6516;35.028;32.372;2024-01-30T08:33:55;99900.41;;;12.72;100.00
12897;BME280;6516;35.028;32.372;2024-01-30T08:36:27;99901.28;;;13.28;100.00
12897;BME280;6516;35.028;32.372;2024-01-30T08:38:57;99896.50;;;13.89;100.00
12897;BME280;6516;35.028;32.372;2024-01-30T08:41:27;99891.34;;;14.35;100.00
12897;BME280;6516;35.028;32.372;2024-01-30T08:44:03;99890.22;;;14.41;100.00
12897;BME280;6516;35.028;32.372;2024-01-30T08:46:33;99898.44;;;14.56;100.00
12897;BME280;6516;35.028;32.372;2024-01-30T08:49:01;99898.94;;;14.67;100.00
12897;BME280;6516;35.028;32.372;2024-01-30T08:51:33;99894.06;;;14.78;100.00
12897;BME280;6516;35.028;32.372;2024-01-30T08:54:06;99903.69;;;14.81;100.00
12897;BME280;6516;35.028;32.372;2024-01-30T08:56:46;99906.63;;;14.73;100.00
12897;BME280;6516;35.028;32.372;2024-01-30T08:59:32;99899.31;;;14.57;100.00
12897;BME280;6516;35.028;32.372;2024-01-30T09:02:04;99897.75;;;14.51;100.00
12897;BME280;6516;35.028;32.372;2024-01-30T09:04:32;99898.44;;;14.33;100.00
12897;BME280;6516;35.028;32.372;2024-01-30T09:07:06;99884.28;;;14.10;100.00
12897;BME280;6516;35.028;32.372;2024-01-30T09:09:34;99895.09;;;14.04;100.00
12897;BME280;6516;35.028;32.372;2024-01-30T09:12:12;99888.97;;;13.79;100.00
12897;BME280;6516;35.028;32.372;2024-01-30T09:14:46;99891.53;;;13.56;100.00
12897;BME280;6516;35.028;32.372;2024-01-30T09:17:28;99896.59;;;13.36;100.00
12897;BME280;6516;35.028;32.372;2024-01-30T09:20:00;99889.03;;;13.25;100.00
12897;BME280;6516;35.028;32.372;2024-01-30T09:22:31;99884.94;;;13.15;100.00
12897;BME280;6516;35.028;32.372;2024-01-30T09:24:59;99879.75;;;13.12;100.00
12897;BME280;6516;35.028;32.372;2024-01-30T09:27:35;99872.63;;;13.16;100.00
12897;BME280;6516;35.028;32.372;2024-01-30T09:30:10;99874.84;;;13.02;100.00
12897;BME280;6516;35.028;32.372;2024-01-30T09:32:47;99889.97;;;12.97;100.00
12897;BME280;6516;35.028;32.372;2024-01-30T09:35:18;99884.84;;;12.91;100.00
12897;BME280;6516;35.028;32.372;2024-01-30T09:37:47;99891.28;;;12.82;100.00
12897;BME280;6516;35.028;32.372;2024-01-30T09:40:22;99884.59;;;12.71;100.00
12897;BME280;6516;35.028;32.372;2024-01-30T09:42:56;99890.84;;;12.68;100.00
12897;BME280;6516;35.028;32.372;2024-01-30T09:45:28;99894.88;;;12.51;100.00
12897;BME280;6516;35.028;32.372;2024-01-30T09:47:59;99884.09;;;12.29;100.00
12897;BME280;6516;35.028;32.372;2024-01-30T09:50:37;99882.19;;;12.34;100.00
12897;BME280;6516;35.028;32.372;2024-01-30T09:53:09;99881.94;;;12.13;100.00
12897;BME280;6516;35.028;32.372;2024-01-30T09:55:43;99887.72;;;12.25;100.00
12897;BME280;6516;35.028;32.372;2024-01-30T09:58:14;99873.97;;;12.14;100.00
12897;BME280;6516;35.028;32.372;2024-01-30T10:00:44;99880.19;;;12.13;100.00
12897;BME280;6516;35.028;32.372;2024-01-30T10:03:22;99879.78;;;11.96;100.00
12897;BME280;6516;35.028;32.372;2024-01-30T10:06:00;99874.56;;;11.93;100.00
12897;BME280;6516;35.028;32.372;2024-01-30T10:08:28;99881.13;;;11.79;100.00
12897;BME280;6516;35.028;32.372;2024-01-30T10:11:11;99865.41;;;11.76;100.00
12897;BME280;6516;35.028;32.372;2024-01-30T10:13:47;99860.13;;;11.76;100.00
12897;BME280;6516;35.028;32.372;2024-01-30T10:16:19;99855.19;;;11.64;100.00
12897;BME280;6516;35.028;32.372;2024-01-30T10:18:53;99854.91;;;11.74;100.00
12897;BME280;6516;35.028;32.372;2024-01-30T10:21:29;99851.63;;;11.65;100.00
12897;BME280;6516;35.028;32.372;2024-01-30T10:23:59;99848.38;;;11.87;100.00
12897;BME280;6516;35.028;32.372;2024-01-30T10:26:33;99843.22;;;11.83;100.00
12897;BME280;6516;35.028;32.372;2024-01-30T10:29:07;99844.06;;;11.85;100.00
12897;BME280;6516;35.028;32.372;2024-01-30T10:31:38;99844.72;;;11.93;100.00
12897;BME280;6516;35.028;32.372;2024-01-30T10:34:19;99853.22;;;11.72;100.00
12897;BME280;6516;35.028;32.372;2024-01-30T10:36:50;99860.13;;;11.76;100.00
12897;BME280;6516;35.028;32.372;2024-01-30T10:39:41;99847.81;;;11.43;100.00
12897;BME280;6516;35.028;32.372;2024-01-30T10:42:11;99869.50;;;11.18;100.00
12897;BME280;6516;35.028;32.372;2024-01-30T10:44:52;99862.44;;;10.84;100.00
12897;BME280;6516;35.028;32.372;2024-01-30T10:47:35;99869.66;;;10.38;100.00
12897;BME280;6516;35.028;32.372;2024-01-30T10:50:05;99867.78;;;10.43;100.00
12897;BME280;6516;35.028;32.372;2024-01-30T10:52:36;99866.72;;;10.10;100.00
12897;BME280;6516;35.028;32.372;2024-01-30T10:55:14;99856.06;;;10.18;100.00
12897;BME280;6516;35.028;32.372;2024-01-30T10:57:47;99843.19;;;10.04;100.00
12897;BME280;6516;35.028;32.372;2024-01-30T11:00:18;99836.81;;;10.16;100.00
12897;BME280;6516;35.028;32.372;2024-01-30T11:02:49;99836.03;;;10.11;100.00
12897;BME280;6516;35.028;32.372;2024-01-30T11:05:29;99825.31;;;10.21;100.00
12897;BME280;6516;35.028;32.372;2024-01-30T11:08:09;99817.00;;;10.39;100.00
12897;BME280;6516;35.028;32.372;2024-01-30T11:10:49;99797.72;;;10.75;100.00
12897;BME280;6516;35.028;32.372;2024-01-30T11:13:19;99787.16;;;11.10;100.00
12897;BME280;6516;35.028;32.372;2024-01-30T11:15:53;99776.19;;;11.27;100.00
12897;BME280;6516;35.028;32.372;2024-01-30T11:18:29;99767.50;;;11.23;100.00
12897;BME280;6516;35.028;32.372;2024-01-30T11:21:04;99766.91;;;11.13;100.00
12897;BME280;6516;35.028;32.372;2024-01-30T11:23:35;99771.69;;;10.98;100.00
12897;BME280;6516;35.028;32.372;2024-01-30T11:26:04;99767.41;;;10.94;100.00
12897;BME280;6516;35.028;32.372;2024-01-30T11:28:54;99783.72;;;10.73;100.00
12897;BME280;6516;35.028;32.372;2024-01-30T11:31:25;99768.78;;;10.74;100.00
12897;BME280;6516;35.028;32.372;2024-01-30T11:33:58;99771.59;;;10.68;100.00
12897;BME280;6516;35.028;32.372;2024-01-30T11:36:34;99773.88;;;10.81;100.00
12897;BME280;6516;35.028;32.372;2024-01-30T11:39:09;99778.94;;;10.89;100.00
12897;BME280;6516;35.028;32.372;2024-01-30T11:41:41;99768.28;;;10.95;100.00
12897;BME280;6516;35.028;32.372;2024-01-30T11:44:21;99771.47;;;11.06;100.00
12897;BME280;6516;35.028;32.372;2024-01-30T11:46:52;99775.00;;;11.07;100.00
12897;BME280;6516;35.028;32.372;2024-01-30T11:49:23;99772.38;;;11.07;100.00
12897;BME280;6516;35.028;32.372;2024-01-30T11:51:55;99777.63;;;11.07;100.00
12897;BME280;6516;35.028;32.372;2024-01-30T11:54:25;99791.31;;;11.21;100.00
12897;BME280;6516;35.028;32.372;2024-01-30T11:57:03;99782.41;;;11.25;100.00
12897;BME280;6516;35.028;32.372;2024-01-30T11:59:37;99784.22;;;11.23;100.00
12897;BME280;6516;35.028;32.372;2024-01-30T12:02:15;99781.09;;;11.07;100.00
12897;BME280;6516;35.028;32.372;2024-01-30T12:04:44;99769.63;;;11.09;100.00
12897;BME280;6516;35.028;32.372;2024-01-30T12:07:17;99761.81;;;11.07;100.00
12897;BME280;6516;35.028;32.372;2024-01-30T12:09:57;99779.59;;;10.98;100.00
12897;BME280;6516;35.028;32.372;2024-01-30T12:12:28;99775.97;;;11.02;100.00
12897;BME280;6516;35.028;32.372;2024-01-30T12:15:08;99778.81;;;10.95;100.00
12897;BME280;6516;35.028;32.372;2024-01-30T12:17:38;99776.03;;;10.99;100.00
12897;BME280;6516;35.028;32.372;2024-01-30T12:20:14;99782.97;;;11.03;100.00
12897;BME280;6516;35.028;32.372;2024-01-30T12:22:50;99782.19;;;11.00;100.00
12897;BME280;6516;35.028;32.372;2024-01-30T12:25:22;99780.25;;;11.07;100.00
12897;BME280;6516;35.028;32.372;2024-01-30T12:27:50;99781.78;;;11.15;100.00
12897;BME280;6516;35.028;32.372;2024-01-30T12:30:24;99788.56;;;10.90;100.00
12897;BME280;6516;35.028;32.372;2024-01-30T12:33:09;99779.78;;;10.91;100.00
12897;BME280;6516;35.028;32.372;2024-01-30T12:35:48;99787.19;;;10.75;100.00
12897;BME280;6516;35.028;32.372;2024-01-30T12:38:21;99783.81;;;10.70;100.00
12897;BME280;6516;35.028;32.372;2024-01-30T12:40:53;99784.09;;;10.58;100.00
12897;BME280;6516;35.028;32.372;2024-01-30T12:43:25;99783.88;;;10.67;100.00
12897;BME280;6516;35.028;32.372;2024-01-30T12:45:58;99780.44;;;10.65;100.00
12897;BME280;6516;35.028;32.372;2024-01-30T12:48:31;99780.28;;;10.71;100.00
12897;BME280;6516;35.028;32.372;2024-01-30T12:51:04;99777.50;;;10.76;100.00
12897;BME280;6516;35.028;32.372;2024-01-30T12:53:44;99778.41;;;10.75;100.00
12897;BME280;6516;35.028;32.372;2024-01-30T12:56:13;99787.88;;;10.83;100.00
12897;BME280;6516;35.028;32.372;2024-01-30T12:58:45;99785.59;;;10.68;100.00
12897;BME280;6516;35.028;32.372;2024-01-30T13:01:16;99798.69;;;10.71;100.00
12897;BME280;6516;35.028;32.372;2024-01-30T13:03:48;99798.97;;;10.96;100.00
12897;BME280;6516;35.028;32.372;2024-01-30T13:06:21;99803.63;;;11.18;100.00
12897;BME280;6516;35.028;32.372;2024-01-30T13:08:51;99801.19;;;11.45;100.00
12897;BME280;6516;35.028;32.372;2024-01-30T13:11:28;99806.44;;;11.46;100.00
12897;BME280;6516;35.028;32.372;2024-01-30T13:14:07;99804.31;;;11.59;100.00
12897;BME280;6516;35.028;32.372;2024-01-30T13:16:43;99813.72;;;11.69;100.00
12897;BME280;6516;35.028;32.372;2024-01-30T13:19:28;99808.34;;;11.73;100.00
12897;BME280;6516;35.028;32.372;2024-01-30T13:22:01;99811.75;;;11.77;100.00
12897;BME280;6516;35.028;32.372;2024-01-30T13:24:33;99813.47;;;11.78;100.00
12897;BME280;6516;35.028;32.372;2024-01-30T13:27:14;99823.88;;;11.84;100.00